createdAt,value
2022-12-03T00:00:21.365Z,16.42
2022-12-03T00:02:51.279Z,18.08
2022-12-03T00:05:19.833Z,16.90
2022-12-03T00:07:48.360Z,16.63
2022-12-03T00:10:17.662Z,16.42
2022-12-03T00:12:48.395Z,15.75
2022-12-03T00:15:17.000Z,17.88
2022-12-03T00:17:45.592Z,16.60
2022-12-03T00:20:20.575Z,18.15
2022-12-03T00:22:49.275Z,20.80
2022-12-03T00:25:19.414Z,23.02
2022-12-03T00:27:49.532Z,20.00
2022-12-03T00:30:18.157Z,22.00
2022-12-03T00:32:46.635Z,23.00
2022-12-03T00:35:15.134Z,22.88
2022-12-03T00:37:44.303Z,21.52
2022-12-03T00:40:14.684Z,17.80
2022-12-03T00:42:43.301Z,18.45
2022-12-03T00:45:13.700Z,18.38
2022-12-03T00:47:42.153Z,17.02
2022-12-03T00:50:11.584Z,17.40
2022-12-03T00:52:40.019Z,15.77
2022-12-03T00:55:08.998Z,15.43
2022-12-03T00:57:37.671Z,16.05
2022-12-03T01:00:07.653Z,15.90
2022-12-03T01:02:37.752Z,14.57
2022-12-03T01:05:07.334Z,14.82
2022-12-03T01:07:36.367Z,15.95
2022-12-03T01:10:05.316Z,15.27
2022-12-03T01:12:33.795Z,17.15
2022-12-03T01:15:02.275Z,15.80
2022-12-03T01:17:31.982Z,16.75
2022-12-03T01:20:03.907Z,13.75
2022-12-03T01:22:32.624Z,16.45
2022-12-03T01:25:01.055Z,14.75
2022-12-03T01:27:29.554Z,13.57
2022-12-03T01:29:58.058Z,15.38
2022-12-03T01:32:25.657Z,16.08
2022-12-03T01:34:56.470Z,14.75
2022-12-03T01:37:28.097Z,14.93
2022-12-03T01:39:57.409Z,15.48
2022-12-03T01:42:28.755Z,14.90
2022-12-03T01:44:59.624Z,14.60
2022-12-03T01:47:31.965Z,13.57
2022-12-03T01:50:05.035Z,12.88
2022-12-03T01:52:39.321Z,13.63
2022-12-03T01:57:42.685Z,12.05
2022-12-03T02:00:16.306Z,13.95
2022-12-03T02:02:45.767Z,15.23
2022-12-03T02:05:19.247Z,12.63
2022-12-03T02:07:49.879Z,16.02
2022-12-03T02:10:23.219Z,14.07
2022-12-03T02:12:56.187Z,14.82
2022-12-03T02:15:24.937Z,13.45
2022-12-03T02:17:53.808Z,14.80
2022-12-03T02:20:22.587Z,14.18
2022-12-03T02:22:59.951Z,13.77
2022-12-03T02:25:32.478Z,14.40
2022-12-03T02:28:02.191Z,14.98
2022-12-03T02:30:32.451Z,14.02
2022-12-03T02:33:01.470Z,13.55
2022-12-03T02:35:34.999Z,14.10
2022-12-03T02:38:09.726Z,13.82
2022-12-03T02:40:40.318Z,14.07
2022-12-03T02:43:08.116Z,14.05
2022-12-03T02:45:40.680Z,12.65
2022-12-03T02:48:12.756Z,14.50
2022-12-03T02:50:43.255Z,14.32
2022-12-03T02:53:16.363Z,13.25
2022-12-03T02:55:47.471Z,13.43
2022-12-03T02:58:16.998Z,11.95
2022-12-03T03:00:47.083Z,12.50
2022-12-03T03:03:16.327Z,14.13
2022-12-03T03:05:46.377Z,12.50
2022-12-03T03:08:15.229Z,13.07
2022-12-03T03:10:46.607Z,13.35
2022-12-03T03:13:17.683Z,13.18
2022-12-03T03:15:46.291Z,12.85
2022-12-03T03:18:16.359Z,12.13
2022-12-03T03:20:45.766Z,13.63
2022-12-03T03:23:19.048Z,13.60
2022-12-03T03:25:53.691Z,13.77
2022-12-03T03:28:24.848Z,12.55
2022-12-03T03:30:53.863Z,11.95
2022-12-03T03:33:23.230Z,12.60
2022-12-03T03:35:51.957Z,14.27
2022-12-03T03:38:22.243Z,11.73
2022-12-03T03:40:53.481Z,12.93
2022-12-03T03:43:23.421Z,11.98
2022-12-03T03:45:53.792Z,12.32
2022-12-03T03:48:23.391Z,14.15
2022-12-03T03:50:53.546Z,11.35
2022-12-03T03:53:22.884Z,12.05
2022-12-03T03:55:55.701Z,10.50
2022-12-03T03:58:24.178Z,11.93
2022-12-03T04:00:53.305Z,11.57
2022-12-03T04:03:21.854Z,11.43
2022-12-03T04:05:51.570Z,11.98
2022-12-03T04:08:20.312Z,11.43
2022-12-03T04:11:06.096Z,11.50
2022-12-03T04:13:36.124Z,10.35
2022-12-03T04:16:05.503Z,13.02
2022-12-03T04:18:46.049Z,12.18
2022-12-03T04:21:34.087Z,10.90
2022-12-03T04:24:03.143Z,12.25
2022-12-03T04:26:49.431Z,12.45
2022-12-03T04:29:21.517Z,11.73
2022-12-03T04:32:07.419Z,13.55
2022-12-03T04:34:54.015Z,13.15
2022-12-03T04:37:22.914Z,11.63
2022-12-03T04:39:51.363Z,11.85
2022-12-03T04:42:19.979Z,11.35
2022-12-03T04:44:49.981Z,13.70
2022-12-03T04:47:20.394Z,10.90
2022-12-03T04:49:52.072Z,11.70
2022-12-03T04:52:22.049Z,13.65
2022-12-03T04:54:50.740Z,14.15
2022-12-03T04:57:19.159Z,13.95
2022-12-03T04:59:47.770Z,13.48
2022-12-03T05:02:17.686Z,14.10
2022-12-03T05:04:46.207Z,11.75
2022-12-03T05:07:14.813Z,11.70
2022-12-03T05:09:43.254Z,11.55
2022-12-03T05:12:11.997Z,13.05
2022-12-03T05:14:40.435Z,11.77
2022-12-03T05:17:09.884Z,17.25
2022-12-03T05:19:57.608Z,11.10
2022-12-03T05:22:26.133Z,10.43
2022-12-03T05:24:54.837Z,11.48
2022-12-03T05:27:24.495Z,11.88
2022-12-03T05:29:53.346Z,12.48
2022-12-03T05:32:22.056Z,12.13
2022-12-03T05:34:52.408Z,13.35
2022-12-03T05:37:21.078Z,14.07
2022-12-03T05:39:49.539Z,13.15
2022-12-03T05:42:35.584Z,12.23
2022-12-03T05:45:04.104Z,13.20
2022-12-03T05:47:33.484Z,12.63
2022-12-03T05:50:03.492Z,12.88
2022-12-03T05:52:32.249Z,10.70
2022-12-03T05:55:00.661Z,11.52
2022-12-03T05:57:32.379Z,12.23
2022-12-03T06:00:00.929Z,12.82
2022-12-03T06:02:29.556Z,12.93
2022-12-03T06:04:58.258Z,12.75
2022-12-03T06:07:28.905Z,13.85
2022-12-03T06:09:57.386Z,10.70
2022-12-03T06:12:25.801Z,12.48
2022-12-03T06:14:55.228Z,13.32
2022-12-03T06:17:23.953Z,11.75
2022-12-03T06:19:52.464Z,11.57
2022-12-03T06:22:21.086Z,13.95
2022-12-03T06:24:51.470Z,16.23
2022-12-03T06:27:20.407Z,12.85
2022-12-03T06:29:48.966Z,13.07
2022-12-03T06:32:17.628Z,12.57
2022-12-03T06:34:46.069Z,12.52
2022-12-03T06:37:14.601Z,12.88
2022-12-03T06:39:43.093Z,12.82
2022-12-03T06:42:12.998Z,13.75
2022-12-03T06:44:41.455Z,12.88
2022-12-03T06:47:09.944Z,15.48
2022-12-03T06:49:38.558Z,20.88
2022-12-03T06:52:07.391Z,19.98
2022-12-03T06:54:35.901Z,17.92
2022-12-03T06:57:04.892Z,20.90
2022-12-03T06:59:36.532Z,27.48
2022-12-03T07:02:05.720Z,23.73
2022-12-03T07:04:34.146Z,25.15
2022-12-03T07:07:02.628Z,27.77
2022-12-03T07:09:31.154Z,20.38
2022-12-03T07:11:59.599Z,17.90
2022-12-03T07:14:28.098Z,14.38
2022-12-03T07:16:58.102Z,13.38
2022-12-03T07:19:32.297Z,13.27
2022-12-03T07:22:01.990Z,13.88
2022-12-03T07:24:30.366Z,23.52
2022-12-03T07:26:59.221Z,15.38
2022-12-03T07:29:27.647Z,17.00
2022-12-03T07:31:57.571Z,17.77
2022-12-03T07:34:27.375Z,20.85
2022-12-03T07:36:57.486Z,20.55
2022-12-03T07:39:26.171Z,17.67
2022-12-03T07:41:56.620Z,15.48
2022-12-03T07:44:25.218Z,12.82
2022-12-03T07:46:53.845Z,12.55
2022-12-03T07:49:23.878Z,12.18
2022-12-03T07:51:54.729Z,13.25
2022-12-03T07:54:26.239Z,14.85
2022-12-03T07:56:59.720Z,15.48
2022-12-03T07:59:30.459Z,11.70
2022-12-03T08:01:59.352Z,11.23
2022-12-03T08:04:29.578Z,11.20
2022-12-03T08:06:58.265Z,11.40
2022-12-03T08:09:26.709Z,11.00
2022-12-03T08:11:55.373Z,11.23
2022-12-03T08:14:24.708Z,11.18
2022-12-03T08:16:53.207Z,11.38
2022-12-03T08:19:22.656Z,13.35
2022-12-03T08:21:57.968Z,12.93
2022-12-03T08:24:29.897Z,15.00
2022-12-03T08:26:58.744Z,12.90
2022-12-03T08:29:27.152Z,11.07
2022-12-03T08:31:57.263Z,11.40
2022-12-03T08:34:32.018Z,12.60
2022-12-03T08:37:07.201Z,14.23
2022-12-03T08:39:38.014Z,12.27
2022-12-03T08:42:31.194Z,11.55
2022-12-03T08:45:21.370Z,12.40
2022-12-03T08:47:49.810Z,12.20
2022-12-03T08:50:28.661Z,14.57
2022-12-03T08:53:09.410Z,12.18
2022-12-03T08:58:19.695Z,12.50
2022-12-03T09:00:49.449Z,12.82
2022-12-03T09:03:20.804Z,12.05
2022-12-03T09:05:49.695Z,13.40
2022-12-03T09:08:19.667Z,14.77
2022-12-03T09:10:48.160Z,14.23
2022-12-03T09:13:16.675Z,11.90
2022-12-03T09:15:45.197Z,13.20
2022-12-03T09:18:14.479Z,13.93
2022-12-03T09:20:43.351Z,12.00
2022-12-03T09:23:11.885Z,17.08
2022-12-03T09:25:42.679Z,13.77
2022-12-03T09:28:11.491Z,23.40
2022-12-03T09:30:40.314Z,14.95
2022-12-03T09:33:10.075Z,16.55
2022-12-03T09:35:38.578Z,11.63
2022-12-03T09:38:07.250Z,11.18
2022-12-03T09:40:35.813Z,12.70
2022-12-03T09:43:06.315Z,12.52
2022-12-03T09:45:34.890Z,12.43
2022-12-03T09:48:04.810Z,14.32
2022-12-03T09:50:33.828Z,15.32
2022-12-03T09:53:04.883Z,13.90
2022-12-03T09:55:33.946Z,16.50
2022-12-03T09:58:02.580Z,15.70
2022-12-03T10:00:32.551Z,14.65
2022-12-03T10:03:06.242Z,12.88
2022-12-03T10:05:35.933Z,13.93
2022-12-03T10:08:07.437Z,12.43
2022-12-03T10:10:36.858Z,12.73
2022-12-03T10:13:08.930Z,12.80
2022-12-03T10:15:38.848Z,12.15
2022-12-03T10:18:19.372Z,11.70
2022-12-03T10:23:25.081Z,10.80
2022-12-03T10:25:56.081Z,12.63
2022-12-03T10:28:34.148Z,12.82
2022-12-03T10:31:09.212Z,12.43
2022-12-03T10:33:41.736Z,14.55
2022-12-03T10:36:21.271Z,15.65
2022-12-03T10:39:08.217Z,16.52
2022-12-03T10:41:39.025Z,15.43
2022-12-03T10:44:18.299Z,13.00
2022-12-03T10:47:06.603Z,14.27
2022-12-03T10:49:35.382Z,14.07
2022-12-03T10:52:04.262Z,16.42
2022-12-03T10:54:34.906Z,17.90
2022-12-03T10:57:04.959Z,15.20
2022-12-03T10:59:35.335Z,15.18
2022-12-03T11:02:10.053Z,18.60
2022-12-03T11:04:54.331Z,18.58
2022-12-03T11:07:24.651Z,20.30
2022-12-03T11:09:55.273Z,17.38
2022-12-03T11:12:27.240Z,20.17
2022-12-03T11:15:07.851Z,22.50
2022-12-03T11:21:09.142Z,16.85
2022-12-03T11:24:06.662Z,15.07
2022-12-03T11:27:26.894Z,14.27
2022-12-03T11:30:00.831Z,14.73
2022-12-03T11:33:09.094Z,14.55
2022-12-03T11:36:12.279Z,14.30
2022-12-03T11:38:52.181Z,14.70
2022-12-03T11:41:32.851Z,14.65
2022-12-03T11:44:27.644Z,18.63
2022-12-03T11:46:57.696Z,16.60
2022-12-03T11:49:39.499Z,15.65
2022-12-03T11:52:24.263Z,13.90
2022-12-03T11:54:56.416Z,15.20
2022-12-03T11:57:30.673Z,14.88
2022-12-03T12:02:28.359Z,13.98
2022-12-03T12:04:56.967Z,14.80
2022-12-03T12:07:38.926Z,14.88
2022-12-03T12:10:08.330Z,14.65
2022-12-03T12:12:40.931Z,13.75
2022-12-03T12:15:35.197Z,16.42
2022-12-03T12:18:39.778Z,15.00
2022-12-03T12:21:43.550Z,17.30
2022-12-03T12:24:38.369Z,18.02
2022-12-03T12:27:09.312Z,19.25
2022-12-03T12:29:41.767Z,21.00
2022-12-03T12:32:16.255Z,16.98
2022-12-03T12:34:46.593Z,22.27
2022-12-03T12:37:19.120Z,17.52
2022-12-03T12:39:49.654Z,20.85
2022-12-03T12:42:31.255Z,23.13
2022-12-03T12:45:02.814Z,20.52
2022-12-03T12:47:32.822Z,23.60
2022-12-03T12:50:01.396Z,24.27
2022-12-03T12:52:30.011Z,25.30
2022-12-03T12:55:04.619Z,19.83
2022-12-03T12:57:35.551Z,19.83
2022-12-03T13:00:06.040Z,24.65
2022-12-03T13:02:45.250Z,18.15
2022-12-03T13:05:15.270Z,18.55
2022-12-03T13:07:45.186Z,22.42
2022-12-03T13:10:38.033Z,14.93
2022-12-03T13:13:26.842Z,17.58
2022-12-03T13:16:01.638Z,15.45
2022-12-03T13:18:40.141Z,18.58
2022-12-03T13:21:25.454Z,13.00
2022-12-03T13:23:55.664Z,15.52
2022-12-03T13:26:38.039Z,16.83
2022-12-03T13:29:16.533Z,14.77
2022-12-03T13:31:52.056Z,11.02
2022-12-03T13:34:23.391Z,9.30
2022-12-03T13:36:57.946Z,9.48
2022-12-03T13:39:35.258Z,8.57
2022-12-03T13:42:35.168Z,11.40
2022-12-03T13:45:22.458Z,12.80
2022-12-03T13:47:56.550Z,17.60
2022-12-03T13:50:34.333Z,14.25
2022-12-03T13:53:03.453Z,9.00
2022-12-03T13:55:33.512Z,8.68
2022-12-03T13:58:03.702Z,8.48
2022-12-03T14:00:32.422Z,9.50
2022-12-03T14:03:02.748Z,9.40
2022-12-03T14:05:31.663Z,10.38
2022-12-03T14:08:02.381Z,9.18
2022-12-03T14:10:31.221Z,9.65
2022-12-03T14:13:00.160Z,11.88
2022-12-03T14:15:32.538Z,9.45
2022-12-03T14:18:01.014Z,10.27
2022-12-03T14:20:29.673Z,9.48
2022-12-03T14:22:59.676Z,13.38
2022-12-03T14:25:28.301Z,11.05
2022-12-03T14:27:56.874Z,11.02
2022-12-03T14:30:25.313Z,11.40
2022-12-03T14:32:55.467Z,11.70
2022-12-03T14:35:24.178Z,11.32
2022-12-03T14:37:52.708Z,14.57
2022-12-03T14:40:22.034Z,13.52
2022-12-03T14:42:50.872Z,12.57
2022-12-03T14:45:20.961Z,11.35
2022-12-03T14:47:49.650Z,11.05
2022-12-03T14:50:19.452Z,9.80
2022-12-03T14:52:48.018Z,11.98
2022-12-03T14:55:16.572Z,10.73
2022-12-03T14:57:45.131Z,9.40
2022-12-03T15:00:14.628Z,10.45
2022-12-03T15:02:43.236Z,12.65
2022-12-03T15:05:12.720Z,10.65
2022-12-03T15:07:43.077Z,11.10
2022-12-03T15:10:12.185Z,13.48
2022-12-03T15:12:41.497Z,13.43
2022-12-03T15:15:12.319Z,13.88
2022-12-03T15:17:40.760Z,11.75
2022-12-03T15:20:10.312Z,13.63
2022-12-03T15:22:38.778Z,12.93
2022-12-03T15:25:09.719Z,13.85
2022-12-03T15:27:38.357Z,12.93
2022-12-03T15:30:08.453Z,13.57
2022-12-03T15:32:37.081Z,14.80
2022-12-03T15:35:08.167Z,13.38
2022-12-03T15:37:36.716Z,12.52
2022-12-03T15:40:05.920Z,13.57
2022-12-03T15:42:35.739Z,13.60
2022-12-03T15:45:04.569Z,12.77
2022-12-03T15:47:33.863Z,12.85
2022-12-03T15:50:02.349Z,11.80
2022-12-03T15:52:31.791Z,12.10
2022-12-03T15:55:00.853Z,11.50
2022-12-03T15:57:29.698Z,13.07
2022-12-03T15:59:59.598Z,12.95
2022-12-03T16:02:33.825Z,12.82
2022-12-03T16:05:02.834Z,12.88
2022-12-03T16:07:32.223Z,12.88
2022-12-03T16:10:02.270Z,13.82
2022-12-03T16:12:31.756Z,12.57
2022-12-03T16:15:01.623Z,12.10
2022-12-03T16:17:32.476Z,12.32
2022-12-03T16:20:00.910Z,12.07
2022-12-03T16:22:29.373Z,11.98
2022-12-03T16:24:57.833Z,11.45
2022-12-03T16:27:26.373Z,10.93
2022-12-03T16:29:56.367Z,12.10
2022-12-03T16:32:26.685Z,9.15
2022-12-03T16:34:55.098Z,7.78
2022-12-03T16:37:24.750Z,7.75
2022-12-03T16:39:54.759Z,7.85
2022-12-03T16:42:24.050Z,7.55
2022-12-03T16:45:15.911Z,8.18
2022-12-03T16:47:45.899Z,7.47
2022-12-03T16:50:21.780Z,8.50
2022-12-03T16:52:57.496Z,7.10
2022-12-03T16:55:26.129Z,6.65
2022-12-03T16:57:54.934Z,7.57
2022-12-03T17:00:23.474Z,7.20
2022-12-03T17:02:53.385Z,7.63
2022-12-03T17:05:22.824Z,6.35
2022-12-03T17:07:51.622Z,6.30
2022-12-03T17:10:20.213Z,6.88
2022-12-03T17:15:40.286Z,5.50
2022-12-03T17:18:11.683Z,5.55
2022-12-03T17:20:40.686Z,7.70
2022-12-03T17:23:09.367Z,6.13
2022-12-03T17:25:37.829Z,6.35
2022-12-03T17:28:06.798Z,5.68
2022-12-03T17:30:35.239Z,6.25
2022-12-03T17:33:03.745Z,6.50
2022-12-03T17:35:33.718Z,6.57
2022-12-03T17:38:03.280Z,5.80
2022-12-03T17:40:33.203Z,6.20
2022-12-03T17:43:01.607Z,5.38
2022-12-03T17:45:30.494Z,6.30
2022-12-03T17:47:59.030Z,6.50
2022-12-03T17:50:27.622Z,5.97
2022-12-03T17:52:58.077Z,7.55
2022-12-03T17:55:37.028Z,5.60
2022-12-03T18:00:35.537Z,5.60
2022-12-03T18:03:04.028Z,5.40
2022-12-03T18:05:32.657Z,6.00
2022-12-03T18:08:02.879Z,5.82
2022-12-03T18:10:31.851Z,6.03
2022-12-03T18:13:02.096Z,5.82
2022-12-03T18:15:31.654Z,6.18
2022-12-03T18:18:00.491Z,6.05
2022-12-03T18:20:29.095Z,6.20
2022-12-03T18:22:59.689Z,6.90
2022-12-03T18:25:31.111Z,7.68
2022-12-03T18:27:59.985Z,5.78
2022-12-03T18:30:28.596Z,6.75
2022-12-03T18:32:58.538Z,8.25
2022-12-03T18:35:27.265Z,6.32
2022-12-03T18:37:56.045Z,9.77
2022-12-03T18:40:27.299Z,6.05
2022-12-03T18:42:58.772Z,7.00
2022-12-03T18:45:27.255Z,5.53
2022-12-03T18:47:56.812Z,5.53
2022-12-03T18:50:25.325Z,6.93
2022-12-03T18:52:53.845Z,8.70
2022-12-03T18:55:23.531Z,6.50
2022-12-03T18:57:52.090Z,7.32
2022-12-03T19:00:23.916Z,7.07
2022-12-03T19:03:08.136Z,7.75
2022-12-03T19:05:37.104Z,6.47
2022-12-03T19:08:14.587Z,6.97
2022-12-03T19:10:44.396Z,6.85
2022-12-03T19:13:13.351Z,6.43
2022-12-03T19:15:43.182Z,6.63
2022-12-03T19:18:11.702Z,6.88
2022-12-03T19:20:42.159Z,7.28
2022-12-03T19:23:10.880Z,6.90
2022-12-03T19:25:39.302Z,7.38
2022-12-03T19:28:07.989Z,7.07
2022-12-03T19:30:37.729Z,6.80
2022-12-03T19:33:12.734Z,7.72
2022-12-03T19:35:45.039Z,7.03
2022-12-03T19:38:13.647Z,6.65
2022-12-03T19:40:42.149Z,8.90
2022-12-03T19:43:10.676Z,6.97
2022-12-03T19:45:56.433Z,6.47
2022-12-03T19:48:26.502Z,7.05
2022-12-03T19:51:13.603Z,7.28
2022-12-03T19:53:44.236Z,7.53
2022-12-03T19:56:15.094Z,8.55
2022-12-03T19:58:46.025Z,10.15
2022-12-03T20:01:16.411Z,7.72
2022-12-03T20:03:48.438Z,8.43
2022-12-03T20:06:18.986Z,7.70
2022-12-03T20:08:47.992Z,7.50
2022-12-03T20:11:19.117Z,7.97
2022-12-03T20:13:55.130Z,7.60
2022-12-03T20:16:27.378Z,7.45
2022-12-03T20:19:00.419Z,7.22
2022-12-03T20:21:31.832Z,8.38
2022-12-03T20:24:00.591Z,8.52
2022-12-03T20:26:30.084Z,7.78
2022-12-03T20:28:59.515Z,7.00
2022-12-03T20:31:30.022Z,8.48
2022-12-03T20:34:02.102Z,8.85
2022-12-03T20:36:32.733Z,7.20
2022-12-03T20:39:03.095Z,8.18
2022-12-03T20:41:31.999Z,8.50
2022-12-03T20:44:00.500Z,7.53
2022-12-03T20:46:31.230Z,8.20
2022-12-03T20:49:01.561Z,7.82
2022-12-03T20:51:32.887Z,8.30
2022-12-03T20:54:02.303Z,7.78
2022-12-03T20:56:32.677Z,7.85
2022-12-03T20:59:02.117Z,8.52
2022-12-03T21:01:30.761Z,7.45
2022-12-03T21:04:00.727Z,8.40
2022-12-03T21:06:30.148Z,8.00
2022-12-03T21:09:00.909Z,8.00
2022-12-03T21:11:32.041Z,7.60
2022-12-03T21:14:01.142Z,7.10
2022-12-03T21:17:05.691Z,7.32
2022-12-03T21:19:22.029Z,8.48
2022-12-03T21:21:51.699Z,8.30
2022-12-03T21:24:20.302Z,8.30
2022-12-03T21:26:50.316Z,7.60
2022-12-03T21:29:18.870Z,7.70
2022-12-03T21:31:48.747Z,8.13
2022-12-03T21:34:17.606Z,7.68
2022-12-03T21:36:47.503Z,7.63
2022-12-03T21:39:16.121Z,8.00
2022-12-03T21:42:19.264Z,8.07
2022-12-03T21:44:33.191Z,7.65
2022-12-03T21:47:11.454Z,7.15
2022-12-03T21:49:42.861Z,7.60
2022-12-03T21:52:14.952Z,7.40
2022-12-03T21:54:43.553Z,7.70
2022-12-03T21:57:12.021Z,8.70
2022-12-03T21:59:40.550Z,8.30
2022-12-03T22:02:10.567Z,7.35
2022-12-03T22:04:39.929Z,8.85
2022-12-03T22:07:08.541Z,9.23
2022-12-03T22:09:38.676Z,8.52
2022-12-03T22:12:07.805Z,9.48
2022-12-03T22:14:36.538Z,8.85
2022-12-03T22:17:04.972Z,9.32
2022-12-03T22:19:33.543Z,8.18
2022-12-03T22:22:02.162Z,9.38
2022-12-03T22:24:30.688Z,9.70
2022-12-03T22:27:00.521Z,10.82
2022-12-03T22:29:29.168Z,9.02
2022-12-03T22:31:57.859Z,8.48
2022-12-03T22:34:27.101Z,9.13
2022-12-03T22:36:55.609Z,8.60
2022-12-03T22:39:24.107Z,8.60
2022-12-03T22:41:52.560Z,9.18
2022-12-03T22:44:22.575Z,8.52
2022-12-03T22:46:51.238Z,8.30
2022-12-03T22:49:19.790Z,9.20
2022-12-03T22:51:49.167Z,8.63
2022-12-03T22:54:23.556Z,7.75
2022-12-03T22:56:52.659Z,8.10
2022-12-03T22:59:22.542Z,8.00
2022-12-03T23:01:51.175Z,8.60
2022-12-03T23:04:19.750Z,8.15
2022-12-03T23:06:48.316Z,8.25
2022-12-03T23:09:16.946Z,7.30
2022-12-03T23:11:46.144Z,8.07
2022-12-03T23:14:14.675Z,8.35
2022-12-03T23:16:44.598Z,8.55
2022-12-03T23:19:13.131Z,7.72
2022-12-03T23:21:41.639Z,8.55
2022-12-03T23:24:11.324Z,7.93
2022-12-03T23:26:40.244Z,7.13
2022-12-03T23:29:08.840Z,7.25
2022-12-03T23:31:37.683Z,7.78
2022-12-03T23:34:07.751Z,7.75
2022-12-03T23:36:36.597Z,7.57
2022-12-03T23:39:05.606Z,8.77
2022-12-03T23:41:34.077Z,8.00
2022-12-03T23:44:02.608Z,7.93
2022-12-03T23:46:31.065Z,8.00
2022-12-03T23:49:00.205Z,8.65
2022-12-03T23:51:30.280Z,8.10
2022-12-03T23:53:58.838Z,8.25
2022-12-03T23:56:29.333Z,8.02
2022-12-03T23:58:58.970Z,8.50
